Time;durP1;ratioP1;P1;durP2;ratioP2;P2;SDS_P1;SDS_P2;PMS_P1;PMS_P2;Temp;Humidity;BMP_temperature;BMP_pressure;BME280_temperature;BME280_humidity;BME280_pressure;Samples;Min_cycle;Max_cycle;Signal;HPM_P1;HPM_P2
2022/06/08 00:00:06;;;;;;;12.15;8.73;;;12.30;99.90;;;;;;4898273;29;20044;-83
2022/06/08 00:02:32;;;;;;;10.10;8.57;;;12.30;99.90;;;;;;4881802;29;20047;-83
2022/06/08 00:04:59;;;;;;;10.18;8.82;;;12.30;99.90;;;;;;4882264;29;20120;-83
2022/06/08 00:07:24;;;;;;;13.57;9.20;;;12.30;99.90;;;;;;4852091;29;20477;-84
2022/06/08 00:09:50;;;;;;;10.80;8.57;;;12.30;99.90;;;;;;4882602;29;20044;-84
2022/06/08 00:12:16;;;;;;;12.55;8.93;;;12.30;99.90;;;;;;4880910;29;20071;-81
2022/06/08 00:14:44;;;;;;;11.38;8.60;;;12.30;99.90;;;;;;4882513;29;20044;-83
2022/06/08 00:17:10;;;;;;;12.45;8.50;;;12.30;99.90;;;;;;4877819;29;20039;-84
2022/06/08 00:19:35;;;;;;;12.30;9.23;;;12.30;99.90;;;;;;4882314;29;20386;-84
2022/06/08 00:22:02;;;;;;;11.05;8.60;;;12.30;99.90;;;;;;4897729;29;20126;-84
2022/06/08 00:24:28;;;;;;;10.57;8.68;;;12.30;99.90;;;;;;4882561;29;20044;-84
2022/06/08 00:26:53;;;;;;;11.15;8.93;;;12.40;99.90;;;;;;4892887;29;20057;-84
2022/06/08 00:29:19;;;;;;;9.93;8.43;;;12.40;99.90;;;;;;4891473;29;20040;-83
2022/06/08 00:31:45;;;;;;;10.35;8.23;;;12.40;99.90;;;;;;4889538;29;20127;-84
2022/06/08 00:34:11;;;;;;;12.07;9.50;;;12.40;99.90;;;;;;4895611;29;20386;-83
2022/06/08 00:36:36;;;;;;;12.27;9.30;;;12.40;99.90;;;;;;4871704;29;20067;-84
2022/06/08 00:39:03;;;;;;;12.15;10.10;;;12.40;99.90;;;;;;4888294;29;20044;-84
2022/06/08 00:41:46;;;;;;;12.07;9.52;;;12.40;99.90;;;;;;4891080;29;20171;-84
2022/06/08 00:44:31;;;;;;;13.40;10.52;;;12.40;99.90;;;;;;4879893;29;20493;-84
2022/06/08 00:47:00;;;;;;;11.30;8.95;;;12.40;99.90;;;;;;4902152;29;20072;-84
2022/06/08 00:49:31;;;;;;;13.35;9.98;;;12.40;99.90;;;;;;4885509;29;20036;-84
2022/06/08 00:51:59;;;;;;;12.60;9.40;;;12.40;99.90;;;;;;4885778;29;20448;-83
2022/06/08 00:54:37;;;;;;;11.57;9.00;;;12.50;99.90;;;;;;4868020;29;20048;-84
2022/06/08 00:57:16;;;;;;;12.45;9.32;;;12.40;99.90;;;;;;4894610;29;20059;-83
2022/06/08 01:00:09;;;;;;;15.30;10.38;;;13.70;99.90;;;;;;4895728;29;20040;-83
2022/06/08 01:02:35;;;;;;;14.40;9.57;;;12.50;99.90;;;;;;4889661;29;20059;-83
2022/06/08 01:05:19;;;;;;;15.13;9.95;;;12.50;99.90;;;;;;4890579;29;20408;-83
2022/06/08 01:07:47;;;;;;;13.25;9.90;;;12.50;99.90;;;;;;4896555;29;20504;-83
2022/06/08 01:10:16;;;;;;;12.70;10.30;;;12.50;99.90;;;;;;4902777;29;20043;-83
2022/06/08 01:12:42;;;;;;;13.98;10.40;;;12.50;99.90;;;;;;4886065;29;20040;-83
2022/06/08 01:15:12;;;;;;;11.25;9.88;;;12.50;99.90;;;;;;4886265;29;20572;-83
2022/06/08 01:17:38;;;;;;;14.52;10.52;;;12.60;99.90;;;;;;4884071;29;20119;-83
2022/06/08 01:20:05;;;;;;;14.70;10.48;;;12.60;99.90;;;;;;4899326;29;20040;-84
2022/06/08 01:22:31;;;;;;;12.65;10.65;;;12.60;99.90;;;;;;4901350;29;20039;-83
2022/06/08 01:24:57;;;;;;;14.07;10.15;;;12.60;99.90;;;;;;4886728;29;20511;-83
2022/06/08 01:27:28;;;;;;;14.45;10.27;;;12.60;99.90;;;;;;4868298;29;20043;-83
2022/06/08 01:30:19;;;;;;;16.95;11.07;;;12.60;99.90;;;;;;4884814;29;20040;-84
2022/06/08 01:33:08;;;;;;;14.48;10.38;;;12.70;99.90;;;;;;4884986;29;20074;-83
2022/06/08 01:35:42;;;;;;;14.43;11.25;;;12.60;99.90;;;;;;4896402;29;20099;-84
2022/06/08 01:38:34;;;;;;;12.57;10.30;;;12.70;99.90;;;;;;4906235;29;20412;-83
2022/06/08 01:41:18;;;;;;;15.80;11.07;;;12.70;99.90;;;;;;4899411;29;20044;-83
2022/06/08 01:44:09;;;;;;;13.38;10.20;;;12.70;99.90;;;;;;4893065;29;20621;-84
2022/06/08 01:47:00;;;;;;;14.60;10.50;;;12.70;99.90;;;;;;4897333;29;20088;-83
2022/06/08 01:50:17;;;;;;;14.70;10.85;;;12.70;99.90;;;;;;4881260;29;20079;-84
2022/06/08 01:52:59;;;;;;;13.93;11.48;;;12.70;99.90;;;;;;4894225;29;20506;-84
2022/06/08 01:55:44;;;;;;;16.33;11.02;;;12.70;99.90;;;;;;4889756;29;20180;-83
2022/06/08 01:58:12;;;;;;;14.45;10.23;;;12.70;99.90;;;;;;4904236;29;20385;-83
2022/06/08 02:00:44;;;;;;;15.45;11.55;;;12.70;99.90;;;;;;4897960;29;20059;-84
2022/06/08 02:03:16;;;;;;;13.15;10.43;;;12.70;99.90;;;;;;4881884;29;20517;-83
2022/06/08 02:06:03;;;;;;;15.98;11.07;;;12.80;99.90;;;;;;4901154;29;20084;-84
2022/06/08 02:09:00;;;;;;;14.73;10.48;;;12.80;99.90;;;;;;4902325;29;20080;-84
2022/06/08 02:11:41;;;;;;;16.45;10.00;;;12.70;99.90;;;;;;4895891;29;20062;-84
2022/06/08 02:14:14;;;;;;;12.40;10.20;;;12.80;99.90;;;;;;4886732;29;20048;-84
2022/06/08 02:16:52;;;;;;;15.52;10.60;;;12.80;99.90;;;;;;4891028;29;20477;-84
2022/06/08 02:19:24;;;;;;;16.92;10.32;;;12.70;99.90;;;;;;4883839;29;20044;-83
2022/06/08 02:22:03;;;;;;;14.63;10.63;;;12.80;99.90;;;;;;4903265;29;20043;-85
2022/06/08 02:24:37;;;;;;;14.48;11.27;;;12.80;99.90;;;;;;4880917;29;20374;-82
2022/06/08 02:27:10;;;;;;;14.57;10.60;;;12.80;99.90;;;;;;4899753;29;20040;-81
2022/06/08 02:29:43;;;;;;;15.20;10.65;;;12.80;99.90;;;;;;4884658;29;20110;-82
2022/06/08 02:35:22;;;;;;;15.13;10.93;;;12.80;99.90;;;;;;4913531;29;20056;-82
2022/06/08 02:37:50;;;;;;;13.43;10.50;;;12.80;99.90;;;;;;4887422;29;20032;-82
2022/06/08 02:40:23;;;;;;;13.25;10.65;;;12.80;99.90;;;;;;4901606;29;20032;-82
2022/06/08 02:42:52;;;;;;;15.55;10.88;;;12.80;99.90;;;;;;4899899;29;20040;-82
2022/06/08 02:45:27;;;;;;;16.73;11.35;;;12.80;99.90;;;;;;4886739;29;20560;-82
2022/06/08 02:48:00;;;;;;;15.85;11.82;;;12.90;99.90;;;;;;4888309;29;20044;-82
2022/06/08 02:50:27;;;;;;;17.98;12.07;;;12.90;99.90;;;;;;4897332;29;20046;-82
2022/06/08 02:53:06;;;;;;;18.40;12.50;;;12.90;99.90;;;;;;4879258;29;20044;-82
2022/06/08 02:55:48;;;;;;;17.40;12.07;;;12.90;99.90;;;;;;4901945;29;20041;-82
2022/06/08 02:58:26;;;;;;;21.10;12.27;;;12.90;99.90;;;;;;4901431;29;20033;-82
2022/06/08 03:00:57;;;;;;;16.65;12.82;;;12.90;99.90;;;;;;4881158;29;20516;-82
2022/06/08 03:03:36;;;;;;;16.52;12.10;;;12.90;99.90;;;;;;4908300;29;20056;-78
2022/06/08 03:06:08;;;;;;;15.05;11.98;;;12.90;99.90;;;;;;4898254;29;20071;-82
2022/06/08 03:08:37;;;;;;;17.05;11.98;;;13.00;99.90;;;;;;4894814;29;20055;-82
2022/06/08 03:11:06;;;;;;;16.48;12.38;;;13.00;99.90;;;;;;4881119;29;20079;-82
2022/06/08 03:13:40;;;;;;;18.20;12.88;;;13.00;99.90;;;;;;4906175;29;20099;-81
2022/06/08 03:16:09;;;;;;;19.33;13.50;;;13.00;99.90;;;;;;4890979;29;20557;-82
2022/06/08 03:18:35;;;;;;;20.40;12.65;;;13.00;99.90;;;;;;4887024;29;20572;-82
2022/06/08 03:21:03;;;;;;;18.15;13.20;;;13.10;99.90;;;;;;4894714;29;20031;-83
2022/06/08 03:23:30;;;;;;;18.67;12.57;;;13.10;99.90;;;;;;4891763;29;20044;-83
2022/06/08 03:25:56;;;;;;;16.15;12.65;;;13.10;99.90;;;;;;4896393;29;20052;-83
2022/06/08 03:28:21;;;;;;;20.75;13.23;;;13.10;99.90;;;;;;4868671;29;20516;-82
2022/06/08 03:30:47;;;;;;;16.80;14.18;;;13.10;99.90;;;;;;4907163;29;20035;-83
2022/06/08 03:33:14;;;;;;;18.88;13.68;;;13.20;99.90;;;;;;4918707;29;20048;-82
2022/06/08 03:35:40;;;;;;;21.20;15.15;;;13.20;99.90;;;;;;4917541;29;20044;-83
2022/06/08 03:38:08;;;;;;;19.13;14.25;;;13.20;99.90;;;;;;4909523;29;20496;-83
2022/06/08 03:40:34;;;;;;;22.38;14.95;;;13.20;99.90;;;;;;4877868;29;20100;-83
2022/06/08 03:43:00;;;;;;;20.70;14.35;;;13.30;99.90;;;;;;4881937;29;20087;-83
2022/06/08 03:45:30;;;;;;;18.13;14.80;;;13.30;99.90;;;;;;4881788;29;20477;-83
2022/06/08 03:47:56;;;;;;;20.02;14.25;;;13.30;99.90;;;;;;4896311;29;20040;-83
2022/06/08 03:50:28;;;;;;;24.27;15.82;;;13.40;99.90;;;;;;4879121;29;20696;-84
2022/06/08 03:53:00;;;;;;;22.83;15.75;;;13.30;99.90;;;;;;4896442;29;20040;-83
2022/06/08 03:55:28;;;;;;;20.75;14.90;;;13.30;99.90;;;;;;4883145;29;20188;-83
2022/06/08 03:57:54;;;;;;;23.55;15.25;;;13.30;99.90;;;;;;4882396;29;20050;-83
2022/06/08 04:00:22;;;;;;;21.42;16.48;;;13.30;99.90;;;;;;4900855;29;20040;-84
2022/06/08 04:02:49;;;;;;;20.58;15.93;;;13.30;99.90;;;;;;4896481;29;20549;-84
2022/06/08 04:05:16;;;;;;;21.77;15.55;;;13.30;99.90;;;;;;4879235;29;20048;-83
2022/06/08 04:07:42;;;;;;;23.45;16.40;;;13.30;99.90;;;;;;4885902;29;20044;-83
2022/06/08 04:10:08;;;;;;;21.83;15.57;;;13.30;99.90;;;;;;4883270;29;20404;-83
2022/06/08 04:12:34;;;;;;;22.85;15.57;;;13.30;99.90;;;;;;4883632;29;20549;-83
2022/06/08 04:14:59;;;;;;;23.95;18.00;;;13.30;99.90;;;;;;4906645;29;20123;-83
2022/06/08 04:17:25;;;;;;;22.63;16.73;;;13.30;99.90;;;;;;4896649;29;20040;-83
2022/06/08 04:19:51;;;;;;;25.02;17.00;;;13.30;99.90;;;;;;4870127;29;20044;-83
2022/06/08 04:22:19;;;;;;;24.75;17.10;;;13.30;99.90;;;;;;4871122;29;20040;-84
2022/06/08 04:24:45;;;;;;;21.67;16.42;;;13.40;99.90;;;;;;4898566;29;20048;-83
2022/06/08 04:27:11;;;;;;;26.17;16.73;;;13.40;99.90;;;;;;4901698;29;20044;-83
2022/06/08 04:29:38;;;;;;;24.95;16.65;;;13.40;99.90;;;;;;4880357;29;20052;-83
2022/06/08 04:32:09;;;;;;;20.98;15.73;;;13.50;99.90;;;;;;4884406;29;20068;-83
2022/06/08 04:34:37;;;;;;;23.23;16.50;;;13.50;99.90;;;;;;4901189;29;20040;-83
2022/06/08 04:37:03;;;;;;;22.65;17.08;;;13.60;99.90;;;;;;4888233;29;20493;-83
2022/06/08 04:39:29;;;;;;;24.38;17.25;;;13.60;99.90;;;;;;4897827;29;20123;-83
2022/06/08 04:41:55;;;;;;;23.25;16.88;;;13.60;99.90;;;;;;4901532;29;20084;-83
2022/06/08 04:44:21;;;;;;;23.80;17.00;;;13.60;99.90;;;;;;4906035;29;20055;-84
2022/06/08 04:46:47;;;;;;;22.77;16.80;;;13.60;99.90;;;;;;4887322;29;20052;-84
2022/06/08 04:49:12;;;;;;;22.73;16.90;;;13.70;99.90;;;;;;4871747;29;20055;-83
2022/06/08 04:51:39;;;;;;;24.83;17.92;;;13.60;99.90;;;;;;4904344;29;20048;-84
2022/06/08 04:54:05;;;;;;;23.45;16.90;;;13.70;99.90;;;;;;4885327;29;20067;-83
2022/06/08 04:56:32;;;;;;;24.15;16.95;;;13.80;99.90;;;;;;4899157;29;20059;-84
2022/06/08 04:58:57;;;;;;;26.52;17.75;;;13.80;99.90;;;;;;4899071;29;20048;-84
2022/06/08 05:01:23;;;;;;;23.15;17.20;;;13.80;99.90;;;;;;4887758;29;20115;-84
2022/06/08 05:03:49;;;;;;;24.08;16.58;;;13.90;99.90;;;;;;4923378;29;20510;-83
2022/06/08 05:06:15;;;;;;;23.10;17.10;;;13.90;99.90;;;;;;4887787;29;20076;-83
2022/06/08 05:08:41;;;;;;;23.40;17.77;;;14.00;99.90;;;;;;4885637;29;20096;-83
2022/06/08 05:11:07;;;;;;;23.20;16.67;;;14.10;99.90;;;;;;4902314;29;20040;-82
2022/06/08 05:13:34;;;;;;;22.98;16.35;;;14.20;99.90;;;;;;4902931;29;20055;-83
2022/06/08 05:16:01;;;;;;;21.30;16.55;;;14.20;99.90;;;;;;4886579;29;20080;-83
2022/06/08 05:18:27;;;;;;;20.63;15.70;;;14.30;99.90;;;;;;4873172;29;20032;-83
2022/06/08 05:20:54;;;;;;;22.73;16.67;;;14.30;99.90;;;;;;4886205;29;20051;-83
2022/06/08 05:23:25;;;;;;;22.08;15.98;;;14.40;99.90;;;;;;4873350;29;20039;-83
2022/06/08 05:25:52;;;;;;;24.20;16.70;;;14.40;99.90;;;;;;4882975;29;20048;-79
2022/06/08 05:28:17;;;;;;;24.27;17.35;;;14.50;99.90;;;;;;4898814;29;20048;-79
2022/06/08 05:30:43;;;;;;;23.00;16.30;;;14.50;99.90;;;;;;4876215;29;20503;-80
2022/06/08 05:33:10;;;;;;;24.67;16.13;;;14.50;99.90;;;;;;4880930;29;20083;-79
2022/06/08 05:35:37;;;;;;;25.38;18.27;;;14.60;99.90;;;;;;4888509;29;20560;-80
2022/06/08 05:38:03;;;;;;;21.90;16.95;;;14.60;99.90;;;;;;4876461;29;20060;-79
2022/06/08 05:40:32;;;;;;;23.83;17.58;;;14.60;99.90;;;;;;4890418;29;20044;-80
2022/06/08 05:43:00;;;;;;;22.77;18.00;;;14.70;99.90;;;;;;4853895;29;20119;-79
2022/06/08 05:45:29;;;;;;;25.67;19.27;;;14.70;99.90;;;;;;4897843;29;20490;-79
2022/06/08 05:47:55;;;;;;;24.73;18.23;;;14.80;99.90;;;;;;4904645;29;20055;-78
2022/06/08 05:50:22;;;;;;;23.80;17.80;;;14.80;99.90;;;;;;4885922;29;20051;-79
2022/06/08 05:52:48;;;;;;;24.75;18.80;;;14.90;99.90;;;;;;4900879;29;20103;-79
2022/06/08 05:55:15;;;;;;;26.45;19.83;;;15.00;99.90;;;;;;4902624;29;20140;-79
2022/06/08 05:57:41;;;;;;;26.55;18.98;;;15.10;99.90;;;;;;4881034;29;20404;-79
2022/06/08 06:00:11;;;;;;;24.23;17.77;;;15.20;99.90;;;;;;4893175;29;20508;-79
2022/06/08 06:02:37;;;;;;;24.92;18.80;;;15.30;99.90;;;;;;4900282;29;20075;-79
2022/06/08 06:05:04;;;;;;;25.00;17.23;;;15.40;99.90;;;;;;4885575;29;20140;-79
2022/06/08 06:07:30;;;;;;;21.90;17.13;;;15.50;99.90;;;;;;4882444;29;20044;-79
2022/06/08 06:10:00;;;;;;;23.73;17.65;;;15.60;99.90;;;;;;4870089;29;20063;-79
2022/06/08 06:12:25;;;;;;;25.77;17.92;;;15.70;99.90;;;;;;4864963;29;20068;-79
2022/06/08 06:14:51;;;;;;;22.10;17.75;;;15.80;99.90;;;;;;4856805;29;20081;-79
2022/06/08 06:17:17;;;;;;;19.77;16.10;;;15.90;99.90;;;;;;4869717;29;20052;-79
2022/06/08 06:19:42;;;;;;;19.63;16.35;;;16.10;99.90;;;;;;4860797;29;20040;-78
2022/06/08 06:22:08;;;;;;;18.60;14.80;;;16.20;99.90;;;;;;4883346;29;20127;-79
2022/06/08 06:24:34;;;;;;;18.45;14.10;;;16.30;99.90;;;;;;4869523;29;20044;-79
2022/06/08 06:27:00;;;;;;;21.25;14.40;;;16.50;99.90;;;;;;4882498;29;20044;-79
2022/06/08 06:29:25;;;;;;;17.55;13.60;;;16.60;99.90;;;;;;4886412;29;20052;-79
2022/06/08 06:31:58;;;;;;;16.05;13.38;;;16.70;99.90;;;;;;4885508;29;20048;-79
2022/06/08 06:34:26;;;;;;;18.40;13.63;;;16.80;99.90;;;;;;4883926;29;20036;-78
2022/06/08 06:36:53;;;;;;;16.90;13.05;;;16.80;99.90;;;;;;4884160;29;20393;-79
2022/06/08 06:39:21;;;;;;;15.55;12.55;;;16.90;99.90;;;;;;4891994;29;20110;-79
2022/06/08 06:41:47;;;;;;;16.67;12.07;;;16.90;99.90;;;;;;4886382;29;20500;-79
2022/06/08 06:44:13;;;;;;;16.15;12.43;;;16.90;99.90;;;;;;4887046;29;20393;-79
2022/06/08 06:46:39;;;;;;;14.27;11.68;;;16.90;99.90;;;;;;4867517;29;20488;-79
2022/06/08 06:49:05;;;;;;;16.25;12.15;;;16.90;99.90;;;;;;4882804;29;20449;-78
2022/06/08 06:51:34;;;;;;;17.10;12.18;;;16.90;99.90;;;;;;4868629;29;20086;-77
2022/06/08 06:54:04;;;;;;;13.77;11.32;;;16.90;99.90;;;;;;4899488;29;20044;-78
2022/06/08 06:56:30;;;;;;;16.58;11.60;;;16.90;99.90;;;;;;4882581;29;20055;-78
2022/06/08 06:58:56;;;;;;;15.10;11.70;;;17.00;99.90;;;;;;4902825;29;20048;-79
2022/06/08 07:01:22;;;;;;;12.95;10.30;;;17.00;99.90;;;;;;4854491;29;20036;-79
2022/06/08 07:03:49;;;;;;;12.52;10.02;;;17.10;99.90;;;;;;4883177;29;20123;-79
2022/06/08 07:06:15;;;;;;;12.55;10.57;;;17.30;99.90;;;;;;4853505;29;20071;-79
2022/06/08 07:08:40;;;;;;;10.57;9.48;;;17.40;99.90;;;;;;4868875;29;20072;-79
2022/06/08 07:13:51;;;;;;;11.23;9.20;;;17.60;99.90;;;;;;4915925;29;20044;-79
2022/06/08 07:16:16;;;;;;;11.95;8.13;;;17.70;99.90;;;;;;4890126;29;20773;-79
2022/06/08 07:18:42;;;;;;;8.52;6.95;;;17.80;99.90;;;;;;4896920;29;20528;-79
2022/06/08 07:21:10;;;;;;;10.93;7.80;;;17.90;99.90;;;;;;4886617;29;20039;-79
2022/06/08 07:23:36;;;;;;;8.55;7.03;;;18.10;99.90;;;;;;4881903;29;20094;-79
2022/06/08 07:26:01;;;;;;;11.00;7.40;;;18.20;99.90;;;;;;4873869;29;20393;-79
2022/06/08 07:28:28;;;;;;;9.15;7.45;;;18.30;99.90;;;;;;4906122;29;20050;-79
2022/06/08 07:30:54;;;;;;;8.65;6.80;;;18.50;99.90;;;;;;4887474;29;20116;-78
2022/06/08 07:33:20;;;;;;;7.78;6.22;;;18.60;99.90;;;;;;4885219;29;20040;-79
2022/06/08 07:35:46;;;;;;;9.68;7.28;;;18.70;99.90;;;;;;4890965;29;20047;-79
2022/06/08 07:38:12;;;;;;;8.77;7.20;;;18.80;99.90;;;;;;4874788;29;20063;-79
2022/06/08 07:40:38;;;;;;;10.10;7.22;;;18.90;99.90;;;;;;4905111;29;20036;-79
2022/06/08 07:43:04;;;;;;;9.52;7.15;;;18.90;99.90;;;;;;4881132;29;20072;-79
2022/06/08 07:45:30;;;;;;;11.48;7.30;;;18.90;99.90;;;;;;4853578;29;20043;-79
2022/06/08 07:50:43;;;;;;;8.98;6.35;;;19.10;99.90;;;;;;4895036;29;20052;-79
2022/06/08 07:53:09;;;;;;;8.60;6.13;;;19.30;99.90;;;;;;4889022;29;20138;-79
2022/06/08 07:55:35;;;;;;;9.13;6.82;;;19.50;99.90;;;;;;4863496;29;20127;-79
2022/06/08 07:58:02;;;;;;;7.90;6.22;;;19.70;99.90;;;;;;4867997;29;20095;-80
2022/06/08 08:00:28;;;;;;;7.38;5.80;;;19.80;99.90;;;;;;4897669;29;20040;-79
2022/06/08 08:02:55;;;;;;;8.15;6.28;;;19.70;99.90;;;;;;4901899;29;20063;-80
2022/06/08 08:05:22;;;;;;;7.72;5.57;;;19.70;99.90;;;;;;4886635;29;20092;-79
2022/06/08 08:07:48;;;;;;;7.47;5.93;;;19.60;99.90;;;;;;4882536;29;20071;-79
2022/06/08 08:10:22;;;;;;;6.80;6.10;;;19.50;99.90;;;;;;4889106;29;20039;-80
2022/06/08 08:12:48;;;;;;;8.68;7.15;;;19.50;99.90;;;;;;4900747;29;20040;-80
2022/06/08 08:15:16;;;;;;;8.80;6.80;;;19.50;99.90;;;;;;4879352;29;20052;-80
2022/06/08 08:17:42;;;;;;;8.40;6.97;;;19.50;99.90;;;;;;4891991;29;20053;-80
2022/06/08 08:20:09;;;;;;;12.80;7.40;;;19.40;99.90;;;;;;4879060;29;20442;-80
2022/06/08 08:22:35;;;;;;;9.50;5.47;;;19.30;99.90;;;;;;4902230;29;20096;-80
2022/06/08 08:25:01;;;;;;;6.60;5.18;;;19.30;99.90;;;;;;4899480;29;20036;-80
2022/06/08 08:27:27;;;;;;;7.35;5.43;;;19.30;99.90;;;;;;4892815;29;20054;-80
2022/06/08 08:29:52;;;;;;;9.25;5.93;;;19.40;99.90;;;;;;4853270;29;20045;-80
2022/06/08 08:32:18;;;;;;;7.45;5.40;;;19.70;99.90;;;;;;4885709;29;20051;-80
2022/06/08 08:34:44;;;;;;;6.07;4.90;;;20.00;99.90;;;;;;4885795;29;20037;-80
2022/06/08 08:37:09;;;;;;;5.10;4.43;;;20.30;99.90;;;;;;4869759;29;20047;-80
2022/06/08 08:39:36;;;;;;;7.25;4.63;;;20.70;99.90;;;;;;4889656;29;20046;-80
2022/06/08 08:42:21;;;;;;;5.65;4.50;;;21.10;99.90;;;;;;4885006;29;20032;-81
2022/06/08 08:44:58;;;;;;;5.30;3.90;;;21.30;99.90;;;;;;4909673;29;20048;-80
2022/06/08 08:47:55;;;;;;;5.72;4.18;;;21.40;99.90;;;;;;4889875;29;20044;-80
2022/06/08 08:50:25;;;;;;;4.97;3.97;;;21.50;99.90;;;;;;4903757;29;20048;-80
2022/06/08 08:53:09;;;;;;;5.05;3.80;;;21.50;99.90;;;;;;4882863;29;20051;-80
2022/06/08 08:55:38;;;;;;;6.93;4.15;;;21.50;99.90;;;;;;4888651;29;20408;-80
2022/06/08 08:58:07;;;;;;;8.45;3.47;;;21.50;99.90;;;;;;4886456;29;20044;-80
2022/06/08 09:00:38;;;;;;;4.25;2.72;;;21.40;99.90;;;;;;4892120;29;20104;-80
2022/06/08 09:03:18;;;;;;;4.93;2.45;;;21.40;99.90;;;;;;4898065;29;20063;-80
2022/06/08 09:05:47;;;;;;;4.55;3.67;;;21.30;99.90;;;;;;4883720;29;20118;-79
2022/06/08 09:08:15;;;;;;;8.07;4.60;;;21.30;99.90;;;;;;4898903;29;20131;-80
2022/06/08 09:10:41;;;;;;;5.97;4.53;;;21.30;99.90;;;;;;4884466;29;20055;-80
2022/06/08 09:13:20;;;;;;;6.40;4.18;;;21.30;99.90;;;;;;4901519;29;20083;-80
2022/06/08 09:15:56;;;;;;;6.65;3.65;;;21.50;99.90;;;;;;4884019;29;20092;-80
2022/06/08 09:18:34;;;;;;;10.20;4.13;;;21.70;99.90;;;;;;4900051;29;20076;-80
2022/06/08 09:21:17;;;;;;;7.60;4.28;;;21.70;99.90;;;;;;4899616;29;20071;-80
2022/06/08 09:23:43;;;;;;;6.97;4.38;;;21.70;99.90;;;;;;4905309;29;20084;-80
2022/06/08 09:26:24;;;;;;;5.40;4.13;;;21.50;99.90;;;;;;4899660;29;20066;-80
2022/06/08 09:29:15;;;;;;;6.30;3.50;;;21.30;99.90;;;;;;4891639;29;20047;-80
2022/06/08 09:31:41;;;;;;;4.68;4.10;;;21.10;99.90;;;;;;4877811;29;20076;-79
2022/06/08 09:34:19;;;;;;;7.03;3.88;;;21.00;99.90;;;;;;4888413;29;20040;-80
2022/06/08 09:37:01;;;;;;;7.70;4.72;;;21.00;99.90;;;;;;4901276;29;20084;-80
2022/06/08 09:39:27;;;;;;;7.22;3.85;;;21.00;99.90;;;;;;4886539;29;20119;-80
2022/06/08 09:41:54;;;;;;;4.32;3.33;;;21.00;99.90;;;;;;4855115;29;20068;-80
2022/06/08 09:44:28;;;;;;;7.13;3.70;;;21.00;99.90;;;;;;4886023;29;20048;-80
2022/06/08 09:53:52;;;;;;;7.05;4.50;;;21.00;99.90;;;;;;4897591;29;20063;-80
2022/06/08 09:56:47;;;;;;;9.13;6.10;;;21.00;99.90;;;;;;4891560;29;20088;-80
2022/06/08 09:59:41;;;;;;;8.38;4.88;;;21.10;99.90;;;;;;4886463;29;20138;-80
2022/06/08 10:02:21;;;;;;;7.50;5.13;;;21.20;99.90;;;;;;4897465;29;20100;-80
2022/06/08 10:04:59;;;;;;;8.48;5.57;;;21.10;99.90;;;;;;4894019;29;20061;-81
2022/06/08 10:08:03;;;;;;;5.97;4.82;;;21.10;99.90;;;;;;4886046;29;20064;-79
2022/06/08 10:10:41;;;;;;;7.00;5.10;;;21.10;99.90;;;;;;4844693;29;20505;-79
2022/06/08 10:13:20;;;;;;;10.00;5.35;;;21.10;99.90;;;;;;4914907;29;20059;-80
2022/06/08 10:15:52;;;;;;;7.72;4.72;;;21.10;99.90;;;;;;4887075;29;20080;-81
2022/06/08 10:18:28;;;;;;;7.70;5.22;;;21.10;99.90;;;;;;4899697;29;20473;-80
2022/06/08 10:21:25;;;;;;;7.47;5.35;;;21.10;99.90;;;;;;4884639;29;20969;-82
2022/06/08 10:24:24;;;;;;;6.85;4.32;;;21.10;99.90;;;;;;4885030;29;20493;-81
2022/06/08 10:27:02;;;;;;;8.63;4.60;;;21.10;99.90;;;;;;4899706;29;20132;-80
2022/06/08 10:29:45;;;;;;;8.98;4.63;;;21.10;99.90;;;;;;4898371;29;20032;-78
2022/06/08 10:32:24;;;;;;;7.75;4.40;;;21.20;99.90;;;;;;4895584;29;20042;-79
2022/06/08 10:34:56;;;;;;;11.88;4.50;;;21.20;99.90;;;;;;4898502;29;20050;-79
2022/06/08 10:37:35;;;;;;;6.65;4.28;;;21.10;99.90;;;;;;4895890;29;20040;-77
2022/06/08 10:40:20;;;;;;;7.43;4.40;;;21.10;99.90;;;;;;4901969;29;20048;-78
2022/06/08 10:42:47;;;;;;;8.23;3.90;;;21.10;99.90;;;;;;4884915;29;20040;-77
2022/06/08 10:45:22;;;;;;;5.72;3.60;;;21.00;99.90;;;;;;4895864;29;20079;-76
2022/06/08 10:48:10;;;;;;;6.57;3.87;;;21.00;99.90;;;;;;4885086;29;20044;-78
2022/06/08 10:50:43;;;;;;;7.38;3.75;;;21.00;99.90;;;;;;4883766;29;20044;-78
2022/06/08 10:56:28;;;;;;;7.60;4.32;;;21.20;99.90;;;;;;4898019;29;20400;-78
2022/06/08 10:59:06;;;;;;;6.17;4.37;;;21.30;99.90;;;;;;4902814;29;20049;-79
2022/06/08 11:01:50;;;;;;;5.85;4.07;;;21.40;99.90;;;;;;4898009;29;20047;-78
2022/06/08 11:04:34;;;;;;;6.47;4.10;;;21.60;99.90;;;;;;4899976;29;20667;-78
2022/06/08 11:07:16;;;;;;;7.47;4.18;;;21.60;99.90;;;;;;4901121;29;20059;-79
2022/06/08 11:09:43;;;;;;;8.70;3.10;;;21.60;99.90;;;;;;4898896;29;20040;-78
2022/06/08 11:12:12;;;;;;;8.85;1.70;;;21.40;99.90;;;;;;4899496;29;20130;-79
2022/06/08 11:14:44;;;;;;;19.52;2.22;;;21.10;99.90;;;;;;4877944;29;20092;-78
2022/06/08 11:17:25;;;;;;;10.18;1.75;;;20.60;99.90;;;;;;4900766;29;20043;-78
2022/06/08 11:19:53;;;;;;;4.03;1.42;;;19.80;99.90;;;;;;4881108;29;20044;-78
2022/06/08 11:22:29;;;;;;;5.28;1.73;;;19.10;99.90;;;;;;4886006;29;20054;-78
2022/06/08 11:24:59;;;;;;;9.50;2.10;;;18.70;99.90;;;;;;4885431;29;20131;-78
2022/06/08 11:27:34;;;;;;;7.78;2.05;;;18.40;99.90;;;;;;4879372;29;20032;-78
2022/06/08 11:30:22;;;;;;;3.63;2.08;;;18.20;99.90;;;;;;4895675;29;20048;-78
2022/06/08 11:33:11;;;;;;;5.13;2.22;;;18.20;99.90;;;;;;4874551;29;20395;-79
2022/06/08 11:36:10;;;;;;;7.90;3.00;;;18.10;99.90;;;;;;4880273;29;20048;-78
2022/06/08 11:38:52;;;;;;;9.05;3.15;;;18.00;99.90;;;;;;4875132;29;20090;-79
2022/06/08 11:41:21;;;;;;;5.97;3.08;;;18.00;99.90;;;;;;4877074;29;20051;-79
2022/06/08 11:43:48;;;;;;;5.90;4.07;;;18.00;99.90;;;;;;4897778;29;20040;-78
2022/06/08 11:46:36;;;;;;;6.90;4.25;;;18.00;99.90;;;;;;4877621;29;20044;-78
2022/06/08 11:49:04;;;;;;;9.40;5.45;;;18.00;99.90;;;;;;4879413;29;20055;-78
2022/06/08 11:51:39;;;;;;;12.05;4.65;;;18.00;99.90;;;;;;4894970;29;20052;-78
2022/06/08 11:54:37;;;;;;;9.35;5.30;;;18.00;99.90;;;;;;4900108;29;20048;-78
2022/06/08 11:57:17;;;;;;;12.00;5.70;;;18.00;99.90;;;;;;4850496;29;20053;-79
2022/06/08 11:59:45;;;;;;;10.57;5.78;;;18.00;99.90;;;;;;4895084;29;20055;-78
2022/06/08 12:02:20;;;;;;;11.38;5.90;;;18.00;99.90;;;;;;4895873;29;20370;-78
2022/06/08 12:04:50;;;;;;;9.43;6.07;;;18.00;99.90;;;;;;4878732;29;20095;-78
2022/06/08 12:07:35;;;;;;;9.10;6.13;;;18.00;99.90;;;;;;4895975;29;20761;-79
2022/06/08 12:10:03;;;;;;;10.25;7.18;;;18.10;99.90;;;;;;4881024;29;20040;-79
2022/06/08 12:12:29;;;;;;;7.88;7.05;;;18.30;99.90;;;;;;4876761;29;20048;-79
2022/06/08 12:14:55;;;;;;;11.40;6.93;;;18.40;99.90;;;;;;4885721;29;20044;-78
2022/06/08 12:17:33;;;;;;;12.88;7.03;;;18.60;99.90;;;;;;4880919;29;20424;-78
2022/06/08 12:20:02;;;;;;;10.55;7.05;;;18.80;99.90;;;;;;4878691;29;20521;-78
2022/06/08 12:22:34;;;;;;;9.85;6.32;;;18.90;99.90;;;;;;4878945;29;20050;-78
2022/06/08 12:25:09;;;;;;;11.65;5.05;;;19.00;99.90;;;;;;4898120;29;20489;-77
2022/06/08 12:27:44;;;;;;;7.55;4.85;;;18.90;99.90;;;;;;4885230;29;20056;-78
2022/06/08 12:30:27;;;;;;;9.88;4.68;;;18.90;99.90;;;;;;4893727;29;20051;-78
2022/06/08 12:32:59;;;;;;;10.15;4.40;;;18.80;99.90;;;;;;4879839;29;20052;-79
2022/06/08 12:35:38;;;;;;;9.25;4.53;;;18.70;99.90;;;;;;4883949;29;20048;-77
2022/06/08 12:38:21;;;;;;;9.05;4.22;;;18.70;99.90;;;;;;4880041;29;20059;-77
2022/06/08 12:41:16;;;;;;;7.32;4.10;;;18.60;99.90;;;;;;4884146;29;20467;-78
2022/06/08 12:43:46;;;;;;;9.53;4.53;;;18.50;99.90;;;;;;4864321;29;20539;-78
2022/06/08 12:46:34;;;;;;;6.53;3.90;;;18.10;99.90;;;;;;4884611;29;20055;-78
2022/06/08 12:49:10;;;;;;;8.52;4.80;;;18.50;99.90;;;;;;4899339;29;20040;-78
2022/06/08 12:51:45;;;;;;;11.57;4.78;;;18.60;99.90;;;;;;4898258;29;20051;-78
2022/06/08 12:54:19;;;;;;;10.38;5.10;;;18.70;99.90;;;;;;4902461;29;20040;-77
2022/06/08 12:56:47;;;;;;;13.43;5.60;;;18.80;99.90;;;;;;4884865;29;20039;-77
2022/06/08 12:59:13;;;;;;;9.45;4.88;;;18.90;99.90;;;;;;4891678;29;20054;-77
2022/06/08 13:01:40;;;;;;;7.50;4.50;;;19.10;99.90;;;;;;4887049;29;20084;-77
2022/06/08 13:04:07;;;;;;;8.57;4.43;;;19.20;99.90;;;;;;4886816;29;20044;-77
2022/06/08 13:06:33;;;;;;;9.90;4.70;;;19.20;99.90;;;;;;4870520;29;20044;-76
2022/06/08 13:08:59;;;;;;;9.80;4.68;;;19.30;99.90;;;;;;4886221;29;20052;-77
2022/06/08 13:11:26;;;;;;;8.10;3.95;;;19.30;99.90;;;;;;4882875;29;20042;-77
2022/06/08 13:13:55;;;;;;;8.25;3.78;;;19.30;99.90;;;;;;4902280;29;20572;-77
2022/06/08 13:16:30;;;;;;;9.77;4.45;;;19.30;99.90;;;;;;4879837;29;20040;-76